Time;durP1;ratioP1;P1;durP2;ratioP2;P2;SDS_P1;SDS_P2;PMS_P1;PMS_P2;Temp;Humidity;BMP_temperature;BMP_pressure;BME280_temperature;BME280_humidity;BME280_pressure;Samples;Min_cycle;Max_cycle;Signal;HPM_P1;HPM_P2
2021/12/04 00:00:23;;;;;;;95.28;39.75;;;5.00;98.50;;;;;;5055975;28;20526;-78
2021/12/04 00:02:50;;;;;;;110.38;48.00;;;4.90;98.50;;;;;;5056021;28;20086;-78
2021/12/04 00:05:17;;;;;;;167.70;66.63;;;4.90;98.50;;;;;;5055659;28;20480;-78
2021/12/04 00:07:43;;;;;;;97.40;39.33;;;5.00;98.40;;;;;;5039052;28;20037;-78
2021/12/04 00:10:16;;;;;;;124.97;44.80;;;5.00;98.40;;;;;;5022882;28;20110;-78
2021/12/04 00:12:42;;;;;;;143.30;52.13;;;4.90;98.40;;;;;;5055591;28;20123;-78
2021/12/04 00:15:08;;;;;;;124.40;47.08;;;4.90;98.40;;;;;;5055812;28;20128;-78
2021/12/04 00:17:34;;;;;;;139.82;47.70;;;4.90;98.50;;;;;;5038787;28;20487;-79
2021/12/04 00:20:00;;;;;;;128.07;53.10;;;4.90;98.50;;;;;;5055437;28;20037;-78
2021/12/04 00:22:25;;;;;;;136.32;61.45;;;5.00;98.20;;;;;;5022402;28;20033;-78
2021/12/04 00:24:51;;;;;;;134.70;46.85;;;5.00;98.30;;;;;;5038804;28;20036;-78
2021/12/04 00:27:17;;;;;;;192.98;88.80;;;4.90;98.40;;;;;;5038813;28;20044;-77
2021/12/04 00:29:42;;;;;;;170.43;70.75;;;4.90;98.30;;;;;;5038968;28;20052;-78
2021/12/04 00:32:27;;;;;;;207.48;94.65;;;5.00;98.40;;;;;;5055431;28;20077;-77
2021/12/04 00:35:08;;;;;;;;;;;4.90;98.30;;;;;;5055521;28;20087;-78
2021/12/04 00:37:51;;;;;;;123.03;45.20;;;4.90;98.40;;;;;;5040646;28;20284;-78
2021/12/04 00:51:14;;;;;;;142.70;45.03;;;4.90;98.60;;;;;;5054947;28;20047;-78
2021/12/04 00:53:40;;;;;;;112.07;41.85;;;4.90;98.70;;;;;;5054582;28;20079;-78
2021/12/04 00:56:06;;;;;;;120.10;44.08;;;4.90;98.60;;;;;;5038196;28;20051;-78
2021/12/04 00:58:32;;;;;;;143.27;48.47;;;4.80;98.70;;;;;;5054745;28;20037;-78
2021/12/04 01:00:57;;;;;;;150.73;46.28;;;4.90;98.80;;;;;;5038441;28;20076;-78
2021/12/04 01:03:24;;;;;;;140.70;45.40;;;4.80;98.70;;;;;;5054869;28;20481;-78
2021/12/04 01:05:50;;;;;;;148.45;47.72;;;4.80;98.70;;;;;;5054833;28;20155;-77
2021/12/04 01:08:16;;;;;;;140.52;45.35;;;4.80;98.70;;;;;;5054815;28;20052;-77
2021/12/04 01:10:42;;;;;;;167.73;50.03;;;4.80;98.90;;;;;;5054721;28;20040;-77
2021/12/04 01:13:11;;;;;;;136.52;48.53;;;4.80;98.90;;;;;;5038220;28;20040;-77
2021/12/04 01:15:41;;;;;;;198.32;64.72;;;4.80;98.90;;;;;;5055002;28;20456;-78
2021/12/04 01:18:08;;;;;;;139.57;43.28;;;4.80;98.90;;;;;;5054995;28;20396;-76
2021/12/04 01:20:33;;;;;;;141.25;47.65;;;4.90;98.90;;;;;;5038016;28;20083;-77
2021/12/04 01:22:59;;;;;;;135.20;43.95;;;4.80;98.80;;;;;;5054388;28;20068;-77
2021/12/04 01:25:25;;;;;;;171.75;67.32;;;4.80;98.70;;;;;;5038073;28;20041;-77
2021/12/04 01:27:51;;;;;;;175.02;64.45;;;4.80;98.70;;;;;;5054707;28;20083;-77
2021/12/04 01:30:16;;;;;;;160.98;47.90;;;4.80;98.70;;;;;;5054381;28;20045;-78
2021/12/04 01:32:42;;;;;;;149.13;46.20;;;4.80;98.70;;;;;;5021713;28;20052;-78
2021/12/04 01:35:08;;;;;;;192.80;54.03;;;4.80;98.80;;;;;;5054548;28;20507;-78
2021/12/04 01:37:35;;;;;;;147.73;47.15;;;4.80;98.80;;;;;;5037879;28;20049;-78
2021/12/04 01:40:00;;;;;;;181.50;47.00;;;4.80;98.90;;;;;;5054305;28;20043;-77
2021/12/04 01:42:27;;;;;;;168.32;48.80;;;4.80;98.90;;;;;;5054356;28;20036;-78
2021/12/04 01:44:53;;;;;;;161.25;46.45;;;4.80;99.00;;;;;;5038282;28;20036;-78
2021/12/04 01:47:20;;;;;;;205.05;52.88;;;4.70;99.00;;;;;;5054431;28;20040;-77
2021/12/04 01:49:51;;;;;;;156.60;45.78;;;4.80;99.00;;;;;;5054557;28;20052;-78
2021/12/04 01:52:18;;;;;;;213.18;49.38;;;4.80;99.00;;;;;;5054441;28;20518;-78
2021/12/04 01:54:45;;;;;;;193.80;51.20;;;4.80;99.00;;;;;;5037840;28;20047;-78
2021/12/04 01:57:16;;;;;;;163.77;46.92;;;4.80;99.00;;;;;;5054300;28;20094;-78
2021/12/04 01:59:43;;;;;;;172.07;48.85;;;4.70;99.10;;;;;;5054440;28;20070;-77
2021/12/04 02:02:10;;;;;;;234.38;53.22;;;4.70;99.00;;;;;;5021306;28;20048;-77
2021/12/04 02:04:36;;;;;;;169.55;52.95;;;4.70;99.00;;;;;;5037998;28;20071;-77
2021/12/04 02:07:04;;;;;;;245.43;55.35;;;4.70;99.00;;;;;;5057211;28;20071;-78
2021/12/04 02:09:31;;;;;;;256.73;65.35;;;4.70;99.00;;;;;;5041425;28;20089;-78
2021/12/04 02:11:57;;;;;;;210.75;55.83;;;4.70;99.00;;;;;;5041064;28;20044;-77
2021/12/04 02:14:22;;;;;;;246.18;78.60;;;4.70;99.10;;;;;;5041183;28;20047;-78
2021/12/04 02:16:49;;;;;;;250.40;73.15;;;4.70;99.10;;;;;;5041099;28;20072;-78
2021/12/04 02:19:15;;;;;;;301.90;86.10;;;4.70;99.00;;;;;;5041378;28;20048;-78
2021/12/04 02:21:41;;;;;;;235.15;80.65;;;4.70;99.00;;;;;;5041015;28;20037;-78
2021/12/04 02:24:06;;;;;;;263.27;81.75;;;4.60;99.00;;;;;;5041102;28;20041;-77
2021/12/04 02:26:32;;;;;;;304.98;94.32;;;4.70;99.00;;;;;;5040971;28;20040;-77
2021/12/04 02:28:58;;;;;;;240.32;72.70;;;4.60;99.00;;;;;;5057818;28;20044;-77
2021/12/04 02:31:25;;;;;;;323.13;90.22;;;4.60;99.10;;;;;;5040622;28;20468;-77
2021/12/04 02:33:51;;;;;;;293.85;80.50;;;4.60;99.10;;;;;;5040923;28;20044;-77
2021/12/04 02:36:17;;;;;;;202.40;54.65;;;4.60;99.00;;;;;;5057168;28;20186;-77
2021/12/04 02:38:50;;;;;;;251.95;66.35;;;4.60;99.10;;;;;;5057340;28;20041;-78
2021/12/04 02:41:16;;;;;;;296.40;71.60;;;4.60;99.10;;;;;;5040889;28;20157;-77
2021/12/04 02:43:42;;;;;;;279.17;85.40;;;4.60;99.10;;;;;;5057342;28;20523;-77
2021/12/04 02:46:07;;;;;;;277.42;63.45;;;4.60;99.00;;;;;;5057231;28;20045;-77
2021/12/04 02:48:33;;;;;;;269.27;71.15;;;4.60;99.00;;;;;;5040526;28;20079;-78
2021/12/04 02:50:59;;;;;;;252.88;63.28;;;4.60;99.00;;;;;;5057319;28;20083;-77
2021/12/04 02:53:25;;;;;;;280.67;116.47;;;4.60;99.10;;;;;;5057330;28;20044;-77
2021/12/04 02:55:53;;;;;;;324.83;119.22;;;4.60;99.10;;;;;;5057281;28;20439;-77
2021/12/04 02:58:20;;;;;;;250.10;79.75;;;4.60;99.10;;;;;;5056986;28;20032;-78
2021/12/04 03:00:48;;;;;;;172.70;61.42;;;4.60;99.10;;;;;;5057134;28;20040;-77
2021/12/04 03:03:17;;;;;;;283.35;91.13;;;4.50;99.10;;;;;;5040255;28;20044;-77
2021/12/04 03:05:45;;;;;;;360.30;102.00;;;4.60;99.10;;;;;;5040885;28;20040;-77
2021/12/04 03:08:11;;;;;;;262.17;75.00;;;4.60;99.20;;;;;;5057079;28;20074;-77
2021/12/04 03:10:37;;;;;;;245.68;76.22;;;4.50;99.20;;;;;;5056764;28;20545;-77
2021/12/04 03:13:07;;;;;;;327.15;92.35;;;4.50;99.10;;;;;;5040320;28;20078;-78
2021/12/04 03:15:33;;;;;;;202.38;56.17;;;4.60;99.20;;;;;;5056705;28;20538;-78
2021/12/04 03:17:58;;;;;;;323.67;77.75;;;4.60;99.10;;;;;;5056388;28;20041;-77
2021/12/04 03:20:24;;;;;;;315.35;96.18;;;4.60;99.10;;;;;;5056561;28;20539;-78
2021/12/04 03:22:55;;;;;;;302.05;99.30;;;4.50;99.10;;;;;;5056762;28;20024;-77
2021/12/04 03:25:21;;;;;;;419.20;129.38;;;4.50;99.10;;;;;;5040167;28;20033;-77
2021/12/04 03:27:49;;;;;;;226.38;61.90;;;4.60;99.10;;;;;;5056368;28;20510;-78
2021/12/04 03:30:34;;;;;;;263.73;79.85;;;4.50;99.10;;;;;;5040084;28;20044;-78
2021/12/04 03:41:02;;;;;;;174.10;53.85;;;4.50;99.10;;;;;;5056394;28;20047;-77
2021/12/04 03:43:29;;;;;;;193.45;71.50;;;4.50;99.10;;;;;;5056377;28;20040;-77
2021/12/04 03:46:03;;;;;;;189.30;53.67;;;4.50;99.20;;;;;;5039551;28;20040;-77
2021/12/04 03:50:58;;;;;;;213.90;65.45;;;4.50;99.20;;;;;;5056118;28;20407;-77
2021/12/04 03:53:23;;;;;;;216.30;54.35;;;4.50;99.20;;;;;;5055966;28;20043;-77
2021/12/04 03:55:52;;;;;;;156.02;48.85;;;4.50;99.10;;;;;;5055841;28;20447;-77
2021/12/04 03:58:20;;;;;;;200.68;56.53;;;4.50;99.10;;;;;;5039473;28;20097;-77
2021/12/04 04:00:47;;;;;;;193.57;47.38;;;4.50;99.20;;;;;;5022699;28;20040;-77
2021/12/04 04:03:13;;;;;;;157.63;46.00;;;4.50;99.20;;;;;;5039351;28;20035;-77
2021/12/04 04:05:38;;;;;;;205.15;54.28;;;4.50;99.20;;;;;;5055671;28;20400;-78
2021/12/04 04:08:04;;;;;;;238.27;58.88;;;4.50;99.20;;;;;;5055988;28;20045;-77
2021/12/04 04:10:30;;;;;;;165.13;46.38;;;4.50;99.20;;;;;;5055517;28;20052;-78
2021/12/04 04:12:56;;;;;;;240.48;52.10;;;4.50;99.30;;;;;;5039057;28;20049;-77
2021/12/04 04:15:22;;;;;;;127.35;43.83;;;4.50;99.20;;;;;;5038915;28;20036;-77
2021/12/04 04:17:49;;;;;;;169.65;45.42;;;4.50;99.20;;;;;;5038729;28;20047;-77
2021/12/04 04:20:18;;;;;;;168.13;43.88;;;4.50;99.20;;;;;;5038856;28;20040;-77
2021/12/04 04:22:46;;;;;;;177.40;40.80;;;4.50;99.20;;;;;;5038722;28;20087;-78
2021/12/04 04:25:13;;;;;;;118.90;36.33;;;4.50;99.30;;;;;;5039025;28;20040;-77
2021/12/04 04:27:39;;;;;;;126.88;39.45;;;4.50;99.30;;;;;;5038638;28;20048;-77
2021/12/04 04:30:11;;;;;;;223.07;47.10;;;4.50;99.20;;;;;;5054860;28;20511;-77
2021/12/04 04:32:37;;;;;;;152.23;40.38;;;4.50;99.20;;;;;;5055215;28;20041;-77
2021/12/04 04:35:11;;;;;;;151.95;39.38;;;4.50;99.30;;;;;;5038615;28;20063;-77
2021/12/04 04:59:34;;;;;;;179.50;41.22;;;4.50;99.30;;;;;;5054911;28;20075;-77
2021/12/04 05:02:17;;;;;;;154.80;40.05;;;4.50;99.30;;;;;;5055097;28;20063;-77
2021/12/04 05:10:38;;;;;;;204.77;41.63;;;4.60;99.30;;;;;;5040743;28;20051;-77
2021/12/04 05:13:07;;;;;;;132.50;36.42;;;4.60;99.30;;;;;;5041850;28;20044;-77
2021/12/04 05:15:55;;;;;;;153.88;40.78;;;4.60;99.30;;;;;;5038383;28;20476;-77
2021/12/04 05:21:03;;;;;;;137.18;37.40;;;4.60;99.30;;;;;;5054931;28;20055;-77
2021/12/04 05:23:30;;;;;;;154.40;37.83;;;4.60;99.20;;;;;;5054722;28;20072;-78
2021/12/04 05:25:56;;;;;;;147.10;37.25;;;4.60;99.30;;;;;;5054814;28;20131;-78
2021/12/04 05:28:22;;;;;;;174.65;39.85;;;4.60;99.20;;;;;;5038349;28;20037;-78
2021/12/04 05:30:49;;;;;;;244.88;46.80;;;4.60;99.20;;;;;;5038115;28;20380;-78
2021/12/04 05:33:15;;;;;;;126.93;35.03;;;4.60;99.20;;;;;;5037968;28;20051;-77
2021/12/04 05:35:41;;;;;;;290.42;49.90;;;4.60;99.20;;;;;;5051063;28;20057;-77
2021/12/04 05:38:07;;;;;;;205.73;42.67;;;4.60;99.20;;;;;;5051124;28;20052;-78
2021/12/04 05:40:33;;;;;;;188.20;40.53;;;4.50;99.20;;;;;;5052145;28;20048;-78
2021/12/04 05:43:01;;;;;;;262.15;46.45;;;4.50;99.30;;;;;;5038688;28;20094;-77
2021/12/04 05:45:29;;;;;;;308.00;50.40;;;4.50;99.30;;;;;;5042021;28;20106;-78
2021/12/04 05:50:42;;;;;;;183.07;38.08;;;4.60;99.30;;;;;;5058175;28;20044;-77
2021/12/04 05:53:29;;;;;;;168.63;38.38;;;4.60;99.30;;;;;;5041717;28;20545;-77
2021/12/04 05:55:57;;;;;;;146.43;38.00;;;4.60;99.30;;;;;;5044393;28;20048;-77
2021/12/04 05:58:29;;;;;;;184.55;39.65;;;4.60;99.30;;;;;;5058089;28;20072;-77
2021/12/04 06:00:57;;;;;;;197.02;39.05;;;4.60;99.30;;;;;;5058118;28;20090;-77
2021/12/04 06:03:24;;;;;;;177.63;39.13;;;4.60;99.30;;;;;;5058196;28;20072;-78
2021/12/04 06:05:50;;;;;;;144.25;35.95;;;4.60;99.30;;;;;;5041381;28;20098;-78
2021/12/04 06:08:15;;;;;;;212.45;42.22;;;4.60;99.30;;;;;;5041414;28;20033;-77
2021/12/04 06:10:41;;;;;;;226.00;41.20;;;4.60;99.20;;;;;;5041314;28;20037;-77
2021/12/04 06:13:07;;;;;;;190.07;41.78;;;4.60;99.30;;;;;;5057882;28;20033;-77
2021/12/04 06:15:34;;;;;;;236.50;47.20;;;4.60;99.30;;;;;;5041245;28;20431;-77
2021/12/04 06:18:00;;;;;;;226.27;43.75;;;4.60;99.30;;;;;;5041201;28;20052;-77
2021/12/04 06:23:11;;;;;;;202.52;54.67;;;4.60;99.30;;;;;;5057639;28;20067;-78
2021/12/04 06:25:37;;;;;;;176.43;44.38;;;4.60;99.30;;;;;;5057853;28;20037;-78
2021/12/04 06:28:04;;;;;;;215.93;50.60;;;4.60;99.30;;;;;;5041335;28;20492;-77
2021/12/04 06:30:35;;;;;;;173.60;41.63;;;4.60;99.30;;;;;;5057544;28;20052;-77
2021/12/04 06:33:01;;;;;;;281.90;53.40;;;4.60;99.30;;;;;;5041973;28;20131;-77
2021/12/04 06:35:27;;;;;;;158.10;43.83;;;4.60;99.30;;;;;;5057078;28;20060;-77
2021/12/04 06:37:53;;;;;;;117.57;37.47;;;4.60;99.20;;;;;;5040703;28;20048;-77
2021/12/04 06:40:23;;;;;;;179.68;40.35;;;4.60;99.30;;;;;;5040799;28;20051;-77
2021/12/04 06:42:49;;;;;;;190.77;42.67;;;4.60;99.30;;;;;;5057382;28;20044;-78
2021/12/04 06:45:15;;;;;;;153.50;39.15;;;4.60;99.20;;;;;;5040627;28;20063;-78
2021/12/04 06:47:47;;;;;;;223.85;42.60;;;4.60;99.20;;;;;;5040721;28;20036;-77
2021/12/04 06:50:28;;;;;;;157.80;38.63;;;4.60;99.30;;;;;;5026286;28;20097;-78
2021/12/04 06:52:57;;;;;;;180.13;40.22;;;4.60;99.30;;;;;;5040053;28;20058;-78
2021/12/04 06:55:27;;;;;;;221.75;44.55;;;4.60;99.30;;;;;;5040511;28;20136;-78
2021/12/04 06:57:53;;;;;;;149.90;37.53;;;4.60;99.30;;;;;;5057047;28;20083;-77
2021/12/04 07:00:19;;;;;;;254.85;43.22;;;4.60;99.30;;;;;;5040584;28;20084;-78
2021/12/04 07:02:45;;;;;;;159.80;36.60;;;4.60;99.20;;;;;;5040292;28;20078;-77
2021/12/04 07:05:10;;;;;;;177.20;39.83;;;4.60;99.20;;;;;;5040385;28;20037;-78
2021/12/04 07:07:36;;;;;;;217.90;44.70;;;4.60;99.20;;;;;;5040264;28;20036;-75
2021/12/04 07:10:03;;;;;;;212.52;41.75;;;4.60;99.30;;;;;;5056648;28;20048;-78
2021/12/04 07:12:29;;;;;;;220.90;42.15;;;4.60;99.20;;;;;;5056981;28;20040;-78
2021/12/04 07:14:55;;;;;;;147.15;32.97;;;4.60;99.20;;;;;;5040150;28;20127;-78
2021/12/04 07:17:20;;;;;;;218.38;40.47;;;4.60;99.30;;;;;;5056534;28;20036;-78
2021/12/04 07:19:46;;;;;;;240.80;46.92;;;4.60;99.20;;;;;;5056613;28;20370;-79
2021/12/04 07:22:12;;;;;;;185.00;37.53;;;4.60;99.30;;;;;;5023495;28;20105;-78
2021/12/04 07:24:38;;;;;;;146.20;36.50;;;4.60;99.30;;;;;;5056789;28;20121;-78
2021/12/04 07:27:05;;;;;;;182.60;40.60;;;4.60;99.30;;;;;;5040095;28;20040;-78
2021/12/04 07:29:31;;;;;;;214.75;40.95;;;4.60;99.30;;;;;;5039933;28;20123;-78
2021/12/04 07:31:57;;;;;;;172.30;38.97;;;4.60;99.20;;;;;;5056404;28;20515;-78
2021/12/04 07:34:23;;;;;;;185.50;43.65;;;4.60;99.30;;;;;;5040174;28;20044;-79
2021/12/04 07:36:49;;;;;;;144.50;37.50;;;4.60;99.30;;;;;;5056297;28;20048;-81
2021/12/04 07:39:15;;;;;;;143.80;35.40;;;4.60;99.30;;;;;;5056406;28;20047;-79
2021/12/04 07:41:42;;;;;;;135.80;32.90;;;4.60;99.30;;;;;;5039687;28;20040;-78
2021/12/04 07:44:10;;;;;;;170.15;37.05;;;4.60;99.20;;;;;;5039678;28;20128;-79
2021/12/04 07:46:38;;;;;;;208.23;42.58;;;4.60;99.20;;;;;;5039781;28;20075;-79
2021/12/04 07:49:04;;;;;;;175.32;39.17;;;4.60;99.20;;;;;;5056489;28;20040;-79
2021/12/04 07:51:30;;;;;;;154.73;36.60;;;4.60;99.30;;;;;;5056374;28;20054;-78
2021/12/04 07:53:57;;;;;;;156.32;37.28;;;4.60;99.20;;;;;;5039573;28;20167;-78
2021/12/04 07:56:23;;;;;;;137.60;34.10;;;4.60;99.20;;;;;;5056436;28;20040;-80
2021/12/04 07:58:50;;;;;;;127.63;35.47;;;4.60;99.20;;;;;;5040030;28;20052;-79
2021/12/04 08:01:16;;;;;;;196.32;42.13;;;4.60;99.20;;;;;;5056134;28;20051;-79
2021/12/04 08:03:42;;;;;;;143.77;35.75;;;4.60;99.20;;;;;;5022623;28;20044;-80
2021/12/04 08:06:08;;;;;;;130.75;38.03;;;4.60;99.20;;;;;;5056153;28;20082;-80
2021/12/04 08:08:34;;;;;;;129.77;32.88;;;4.60;99.20;;;;;;5056008;28;20392;-79
2021/12/04 08:11:00;;;;;;;153.65;35.15;;;4.60;99.30;;;;;;5054575;28;20058;-79
2021/12/04 08:13:25;;;;;;;137.18;35.95;;;4.60;99.20;;;;;;5056107;28;20036;-79
2021/12/04 08:15:51;;;;;;;114.45;32.63;;;4.60;99.30;;;;;;5022867;28;20065;-79
2021/12/04 08:18:17;;;;;;;98.63;30.98;;;4.60;99.20;;;;;;5023358;28;20044;-81
2021/12/04 08:20:44;;;;;;;139.23;33.80;;;4.60;99.20;;;;;;5023184;28;20392;-79
2021/12/04 08:23:10;;;;;;;142.50;36.17;;;4.60;99.20;;;;;;5056010;28;20503;-78
2021/12/04 08:25:36;;;;;;;157.63;35.85;;;4.60;99.20;;;;;;5056400;28;20045;-79
2021/12/04 08:28:03;;;;;;;130.85;34.30;;;4.60;99.20;;;;;;5055684;28;20036;-79
2021/12/04 08:30:32;;;;;;;114.28;33.08;;;4.60;99.20;;;;;;5055684;28;20044;-78
2021/12/04 08:32:58;;;;;;;159.45;34.92;;;4.60;99.20;;;;;;5038910;28;20123;-79
2021/12/04 08:35:26;;;;;;;178.93;40.58;;;4.60;99.20;;;;;;5055389;28;20147;-79
2021/12/04 08:37:58;;;;;;;157.43;38.85;;;4.60;99.20;;;;;;5054754;28;20044;-79
2021/12/04 08:40:24;;;;;;;137.85;35.47;;;4.60;99.20;;;;;;5055447;28;20050;-79
2021/12/04 08:42:50;;;;;;;135.57;31.90;;;4.60;99.20;;;;;;5055081;28;20039;-80
2021/12/04 08:45:17;;;;;;;136.27;35.33;;;4.60;99.20;;;;;;5055087;28;20418;-80
2021/12/04 08:47:43;;;;;;;104.38;31.73;;;4.60;99.20;;;;;;5055281;28;20045;-79
2021/12/04 08:50:12;;;;;;;117.75;32.70;;;4.60;99.20;;;;;;5038449;28;20040;-79
2021/12/04 08:52:39;;;;;;;138.00;33.97;;;4.60;99.20;;;;;;5055003;28;20044;-79
2021/12/04 08:55:09;;;;;;;124.00;33.10;;;4.60;99.20;;;;;;5054999;28;20048;-79
2021/12/04 08:57:35;;;;;;;109.20;33.45;;;4.60;99.20;;;;;;5054798;28;20101;-79
2021/12/04 09:00:03;;;;;;;108.03;31.90;;;4.60;99.30;;;;;;5055031;28;20119;-79
2021/12/04 09:02:29;;;;;;;131.40;36.28;;;4.60;99.20;;;;;;5055265;28;20388;-79
2021/12/04 09:04:57;;;;;;;113.15;33.08;;;4.60;99.20;;;;;;5038331;28;20040;-78
2021/12/04 09:07:23;;;;;;;117.22;34.28;;;4.60;99.20;;;;;;5054818;28;20078;-78
2021/12/04 09:09:54;;;;;;;120.40;36.33;;;4.60;99.20;;;;;;5055130;28;20087;-79
2021/12/04 09:12:20;;;;;;;129.80;34.03;;;4.60;99.20;;;;;;5055172;28;20388;-79
2021/12/04 09:14:46;;;;;;;106.60;28.60;;;4.60;99.20;;;;;;5007029;28;20396;-79
2021/12/04 09:17:15;;;;;;;92.32;27.60;;;4.60;99.20;;;;;;5058961;28;20508;-79
2021/12/04 09:19:41;;;;;;;76.60;24.92;;;4.60;99.20;;;;;;5042288;28;20036;-79
2021/12/04 09:22:11;;;;;;;107.43;29.42;;;4.60;99.10;;;;;;5042255;28;20041;-80
2021/12/04 09:24:42;;;;;;;86.38;27.58;;;4.60;99.20;;;;;;5039356;28;20049;-79
2021/12/04 09:27:36;;;;;;;116.43;28.52;;;4.60;99.20;;;;;;5024412;28;20043;-79
2021/12/04 09:30:37;;;;;;;88.93;27.02;;;4.70;99.20;;;;;;5029654;28;20193;-79
2021/12/04 09:36:47;;;;;;;87.93;26.63;;;4.60;99.20;;;;;;5042686;28;20527;-79
2021/12/04 10:06:24;;;;;;;86.63;31.90;;;4.60;99.20;;;;;;5044254;28;20052;-78
2021/12/04 10:12:27;;;;;;;96.97;31.95;;;4.60;99.20;;;;;;5057929;28;20048;-79
2021/12/04 10:17:55;;;;;;;102.10;30.35;;;4.70;99.20;;;;;;5057852;28;20047;-79
2021/12/04 10:33:47;;;;;;;84.30;29.60;;;4.70;99.20;;;;;;5057834;28;20392;-78
2021/12/04 10:36:25;;;;;;;88.10;30.08;;;4.70;99.10;;;;;;5057265;28;20135;-78
2021/12/04 10:38:51;;;;;;;78.90;30.33;;;4.70;99.20;;;;;;5042483;28;20040;-78
2021/12/04 10:41:17;;;;;;;89.88;29.08;;;4.70;99.20;;;;;;5041150;28;20041;-78
2021/12/04 10:43:43;;;;;;;87.78;27.58;;;4.70;99.20;;;;;;5024250;28;20040;-78
2021/12/04 10:46:18;;;;;;;70.07;25.65;;;4.70;99.20;;;;;;5040751;28;20040;-78
2021/12/04 10:48:53;;;;;;;81.93;27.48;;;4.70;99.10;;;;;;5057633;28;20442;-78
2021/12/04 10:51:28;;;;;;;74.22;27.02;;;4.70;99.10;;;;;;5041174;28;20044;-78
2021/12/04 10:53:56;;;;;;;74.00;26.98;;;4.70;99.00;;;;;;5040966;28;20043;-78
2021/12/04 10:56:29;;;;;;;82.20;27.73;;;4.70;99.00;;;;;;5040735;28;20045;-78
2021/12/04 11:04:13;;;;;;;74.05;26.40;;;4.80;99.10;;;;;;5057302;28;20056;-78
2021/12/04 11:28:49;;;;;;;68.13;27.48;;;4.70;99.00;;;;;;5056687;28;20045;-78
2021/12/04 11:36:57;;;;;;;71.85;28.55;;;4.70;98.90;;;;;;5023899;28;20048;-78
2021/12/04 11:39:27;;;;;;;66.20;25.83;;;4.70;98.90;;;;;;5054948;28;20045;-78
2021/12/04 11:42:55;;;;;;;78.78;27.70;;;4.70;99.00;;;;;;5039976;28;20431;-78
2021/12/04 11:45:03;;;;;;;;;;;4.70;99.00;;;;;;5043374;28;20044;-78
2021/12/04 11:47:51;;;;;;;76.47;28.55;;;4.80;99.00;;;;;;5039463;28;19917;-78
2021/12/04 11:50:30;;;;;;;64.80;25.33;;;4.80;98.90;;;;;;5056167;28;20044;-78
2021/12/04 11:53:05;;;;;;;75.85;26.58;;;4.80;98.90;;;;;;5039497;28;20070;-78
2021/12/04 11:55:37;;;;;;;79.32;29.17;;;4.70;98.90;;;;;;5039759;28;20438;-79
2021/12/04 11:58:03;;;;;;;93.10;31.73;;;4.80;98.90;;;;;;5055876;28;20051;-78
2021/12/04 12:00:32;;;;;;;64.88;24.40;;;4.80;98.90;;;;;;5023115;28;20039;-78
2021/12/04 12:03:09;;;;;;;71.68;26.33;;;4.80;98.90;;;;;;5039258;28;20045;-78
2021/12/04 12:05:54;;;;;;;74.80;29.73;;;4.80;98.90;;;;;;5039072;28;20037;-78
2021/12/04 12:08:23;;;;;;;90.70;34.72;;;4.80;98.90;;;;;;5055760;28;20048;-78
2021/12/04 12:10:53;;;;;;;87.03;34.45;;;4.80;99.00;;;;;;5055724;28;20148;-78
2021/12/04 12:13:44;;;;;;;95.28;33.88;;;4.80;98.90;;;;;;5055855;28;20506;-78
2021/12/04 12:16:21;;;;;;;97.72;32.47;;;4.80;98.90;;;;;;5055400;28;20040;-79
2021/12/04 12:19:04;;;;;;;84.30;33.60;;;4.80;99.00;;;;;;5055697;28;20091;-79
2021/12/04 12:21:52;;;;;;;101.60;37.05;;;4.80;98.90;;;;;;5055683;28;20362;-79
2021/12/04 12:32:55;;;;;;;68.30;25.27;;;4.80;98.90;;;;;;5055602;28;20446;-79
2021/12/04 12:38:43;;;;;;;53.92;22.02;;;4.90;98.90;;;;;;5051633;28;20052;-79
2021/12/04 12:41:42;;;;;;;61.88;25.48;;;4.90;98.90;;;;;;5051983;28;20134;-79
2021/12/04 12:44:40;;;;;;;53.67;24.38;;;4.90;98.90;;;;;;5035268;28;20037;-79
2021/12/04 12:47:16;;;;;;;60.15;25.73;;;4.90;99.00;;;;;;5018860;28;20492;-78
2021/12/04 12:49:45;;;;;;;59.00;26.65;;;4.90;99.00;;;;;;5034916;28;20076;-78
2021/12/04 12:52:26;;;;;;;59.30;25.15;;;4.90;98.90;;;;;;5051772;28;20041;-79
2021/12/04 12:54:54;;;;;;;57.15;26.80;;;5.00;98.90;;;;;;5051853;28;20075;-78
2021/12/04 12:57:27;;;;;;;54.85;25.17;;;5.00;98.90;;;;;;5035094;28;20428;-78
2021/12/04 13:11:45;;;;;;;54.67;23.67;;;5.00;98.80;;;;;;5051844;28;20403;-78
2021/12/04 13:14:19;;;;;;;53.95;22.25;;;5.00;98.80;;;;;;5020726;28;20040;-79
2021/12/04 13:16:51;;;;;;;49.95;24.50;;;5.10;98.80;;;;;;5034819;28;20045;-79
2021/12/04 13:19:21;;;;;;;47.95;24.92;;;5.00;98.70;;;;;;5051543;28;20074;-79
2021/12/04 13:21:51;;;;;;;58.83;23.48;;;5.00;98.70;;;;;;5035089;28;20048;-78
2021/12/04 13:24:21;;;;;;;57.00;26.13;;;5.00;98.70;;;;;;5051727;28;20037;-79
2021/12/04 13:26:51;;;;;;;49.90;23.02;;;5.10;98.70;;;;;;5051443;28;20041;-79
2021/12/04 13:29:20;;;;;;;52.65;26.80;;;5.10;98.70;;;;;;5034761;28;20131;-78
2021/12/04 13:31:46;;;;;;;56.25;23.92;;;5.10;98.70;;;;;;5034835;28;20045;-78
2021/12/04 13:34:21;;;;;;;58.42;23.35;;;5.10;98.70;;;;;;5034778;28;20052;-78
2021/12/04 13:36:46;;;;;;;43.50;23.42;;;5.10;98.60;;;;;;5051116;28;20132;-79
2021/12/04 13:39:15;;;;;;;55.38;26.08;;;5.10;98.60;;;;;;5018646;28;20124;-79
2021/12/04 13:41:44;;;;;;;56.70;23.40;;;5.10;98.60;;;;;;5034794;28;20106;-78
2021/12/04 13:44:12;;;;;;;52.65;23.70;;;5.10;98.60;;;;;;5018489;28;20047;-78
2021/12/04 13:46:47;;;;;;;51.22;24.92;;;5.10;98.50;;;;;;5035097;28;20041;-79
2021/12/04 13:49:15;;;;;;;45.58;21.45;;;5.10;98.50;;;;;;5051200;28;20102;-78
2021/12/04 13:51:41;;;;;;;56.08;26.10;;;5.10;98.50;;;;;;5051173;28;20056;-79
2021/12/04 13:54:08;;;;;;;52.65;23.10;;;5.10;98.60;;;;;;5051129;28;20488;-78
2021/12/04 13:56:34;;;;;;;57.00;24.40;;;5.10;98.50;;;;;;5051022;28;20128;-78
2021/12/04 13:59:04;;;;;;;53.95;23.40;;;5.10;98.50;;;;;;5051130;28;20048;-78
2021/12/04 14:01:41;;;;;;;51.22;22.88;;;5.10;98.50;;;;;;5035125;28;20045;-79
2021/12/04 14:04:11;;;;;;;45.40;21.35;;;5.10;98.50;;;;;;5054827;28;20037;-79
2021/12/04 14:06:37;;;;;;;49.92;21.10;;;5.10;98.40;;;;;;5022186;28;20037;-79
2021/12/04 14:09:05;;;;;;;46.20;21.27;;;5.10;98.40;;;;;;5055006;28;20064;-78
2021/12/04 14:11:35;;;;;;;50.58;23.10;;;5.10;98.40;;;;;;5054935;28;20071;-79
2021/12/04 14:14:22;;;;;;;51.30;22.23;;;5.10;98.40;;;;;;5054651;28;20175;-78
2021/12/04 14:16:52;;;;;;;44.70;20.42;;;5.10;98.40;;;;;;5037924;28;20049;-78
2021/12/04 14:19:27;;;;;;;53.30;22.60;;;5.10;98.40;;;;;;5054908;28;20131;-79
2021/12/04 14:21:57;;;;;;;49.75;21.17;;;5.10;98.50;;;;;;5054539;28;20045;-79
2021/12/04 14:24:44;;;;;;;51.03;22.52;;;5.10;98.40;;;;;;5037793;28;20041;-79
2021/12/04 14:27:15;;;;;;;53.00;23.55;;;5.10;98.40;;;;;;5043746;28;20053;-79
2021/12/04 14:29:46;;;;;;;59.38;24.77;;;5.00;98.40;;;;;;5037847;28;20096;-78
2021/12/04 14:32:13;;;;;;;59.90;25.05;;;5.10;98.40;;;;;;5054435;28;20135;-79
2021/12/04 14:34:39;;;;;;;55.30;23.90;;;5.00;98.40;;;;;;5054745;28;20041;-79
2021/12/04 14:37:14;;;;;;;73.35;27.60;;;5.10;98.50;;;;;;5040454;28;20060;-79
2021/12/04 14:39:44;;;;;;;;;;;5.00;98.50;;;;;;5040911;28;20045;-78
2021/12/04 14:42:19;;;;;;;69.82;26.17;;;5.00;98.50;;;;;;5040477;28;19956;-78
2021/12/04 14:44:52;;;;;;;66.43;25.23;;;5.00;98.50;;;;;;5057200;28;20028;-79
2021/12/04 14:47:19;;;;;;;74.55;26.05;;;5.00;98.50;;;;;;5057042;28;20045;-79
2021/12/04 14:49:46;;;;;;;88.07;34.92;;;5.00;98.60;;;;;;5057246;28;20082;-79
2021/12/04 14:52:24;;;;;;;78.38;28.00;;;5.00;98.60;;;;;;5040759;28;20392;-79
2021/12/04 14:54:51;;;;;;;64.88;25.60;;;5.00;98.60;;;;;;5040577;28;20072;-78
2021/12/04 14:57:35;;;;;;;76.18;29.20;;;5.00;98.60;;;;;;5056908;28;20048;-78
2021/12/04 15:00:11;;;;;;;74.07;28.35;;;5.00;98.60;;;;;;5040555;28;20037;-78
2021/12/04 15:02:37;;;;;;;89.53;30.55;;;5.10;98.70;;;;;;5040784;28;20039;-79
2021/12/04 15:05:04;;;;;;;75.40;29.00;;;5.00;98.70;;;;;;5057092;28;20040;-79
2021/12/04 15:07:33;;;;;;;80.05;28.55;;;5.00;98.70;;;;;;5056870;28;20048;-79
2021/12/04 15:10:04;;;;;;;78.07;27.60;;;5.00;98.70;;;;;;5040396;28;20044;-78
2021/12/04 15:12:33;;;;;;;76.43;27.60;;;5.00;98.70;;;;;;5056747;28;20037;-78
2021/12/04 15:15:05;;;;;;;81.65;28.33;;;5.00;98.80;;;;;;5056762;28;20040;-78
2021/12/04 15:17:33;;;;;;;91.18;32.75;;;5.00;98.80;;;;;;5056867;28;20040;-79
2021/12/04 15:20:09;;;;;;;88.22;32.88;;;5.00;98.80;;;;;;5007694;28;20040;-78
2021/12/04 15:22:42;;;;;;;93.50;32.67;;;5.00;98.80;;;;;;5040370;28;20406;-77
2021/12/04 15:25:18;;;;;;;88.65;33.17;;;5.00;98.90;;;;;;5024395;28;20047;-77